Kenai Fjords National Park, AK

9:55 AM AKDT en Julio 26, 2016 (GMT -0800)
coastal | | Change Station

Alt 90 ft 60.57 °N, 151.29 °W | Updated 14 minutes ago

Overcast
Nublado
58.3 ° F
Sensación térmica 58.3 ° F
N
1.7
Viento Variable Viento desde Oeste

Hoy
Alta -- | Baja -- ° F
--% Posibilidad de precipitaciones
Ayer
Alta -- | Baja -- ° F
Precip. -- pul
Presión 29.87 pul
Visibilidad 10.0 Millas
Nubes Muy nublado 8000 ft
Nublado 11000 ft
Punto de rocío 55 ° F
Humedad 88%
Precipitaciones 0.00 pul
Espesor de la nieve No disponible.
5:29 AM 10:51 PM
Gibosa menguante, 52% visible
METAR PAEN 261753Z 03004KT 10SM BKN080 OVC110 14/12 A2987 RMK AO2 SLP115 T01440117 10144 20100 53001
Presión 29.87 pul
Visibilidad 10.0 Millas
Nubes Muy nublado 8000 ft
Nublado 11000 ft
Punto de rocío 55 ° F
Humedad 88%
Precipitaciones 0.00 pul
Espesor de la nieve No disponible.
5:29 AM 10:51 PM
Gibosa menguante, 52% visible
METAR PAEN 261753Z 03004KT 10SM BKN080 OVC110 14/12 A2987 RMK AO2 SLP115 T01440117 10144 20100 53001

10-Day Weather Forecast

Almanac

Astronomía

Jul. 26, 2016 Salida Puesta
Hora real
Crepúsculo civil
Crepúsculo náutico
Crepúsculo astronómico
Luna
Horas de luz
Horas de luz
Tomorrow will be .
, % of the Moon is Illuminated

Extremos de hoy

Máximos del estado Bajos del estado

Community

WunderPhotos

Upload Photos

1,927,650 ¡fotos cargadas!

WunderBlog® & News

Nearby

Calidad del aire

  Calidad del aire Índice AQ Contaminante
Not available.

Grosos de nieve

Estación Profundido Altura

Actividad de terremotos

Ciudad Distance Mag. Tiempo y dato
Magnitud mínima muestra es 2,5.

Temperaturas de aguas costeras

Lugar Temperatura

Stations

Estaciones meteorológicas cercanas

Ubicación de la estación Temp. Vientos helados Punto de rocío Humedad Viento Precip. Alt Actualizado Tipo
                   

Watches & Warnings

There are currently no watches in effect.